Main page
METAR-TAF:

METAR-TAF

Airports :

Plant City Airport

Plant City, Florida, United States

latitude: 28-00-01N, longitude: 082-09-51W, elevation: 154 ft

Current weather observation

The report was made 22 minutes ago, at 13:15 UTC
Wind 7 mph from the South/Southwest
Temperature 81°F
Humidity 100%
Pressure 30.09 in. Hg
Visibility: 10 miles
Broken clouds at a height of 500 ft

METAR: KPCM 281315Z AUTO 20006KT 10SM BKN005 27/27 A3009 RMK AO2

Time: 09:37 (13:37 UTC)


TAF: missing

Weather observations and forecasts of more than 4000 airports (METAR and TAF reports).

The available stations are represented by yellow and red dots on the map.

Hover mouse over dot to see the name of the station.

Then click to see weather observations and forecasts.

To change the map : click on the green buttons with a black cross to zoom in, on the green button with a dash to zoom out, or on the green arrows for adjacent maps.


METAR-TAF: